Time;durP1;ratioP1;P1;durP2;ratioP2;P2;SDS_P1;SDS_P2;PMS_P1;PMS_P2;Temp;Humidity;BMP_temperature;BMP_pressure;BME280_temperature;BME280_humidity;BME280_pressure;Samples;Min_cycle;Max_cycle;Signal;HPM_P1;HPM_P2
2022/01/01 00:00:53;;;;;;;26.00;19.60;;;;;;;;;;2092160;28;20174;-58
2022/01/01 00:01:53;;;;;;;20.92;18.27;;;;;;;;;;2089651;28;20234;-58
2022/01/01 00:02:54;;;;;;;24.42;18.80;;;;;;;;;;2091971;28;20183;-56
2022/01/01 00:03:55;;;;;;;28.17;17.85;;;;;;;;;;2092931;28;20167;-60
2022/01/01 00:04:56;;;;;;;26.15;18.58;;;;;;;;;;2095942;28;20206;-58
2022/01/01 00:05:56;;;;;;;24.33;17.90;;;;;;;;;;2082596;28;20583;-59
2022/01/01 00:06:56;;;;;;;26.17;17.42;;;;;;;;;;2080842;28;20231;-54
2022/01/01 00:07:57;;;;;;;22.95;17.67;;;;;;;;;;2089993;28;20172;-60
2022/01/01 00:08:58;;;;;;;25.52;18.63;;;;;;;;;;2085677;28;20165;-59
2022/01/01 00:09:58;;;;;;;24.42;17.80;;;;;;;;;;2080830;28;20173;-58
2022/01/01 00:10:58;;;;;;;24.13;17.35;;;;;;;;;;2089439;28;20176;-58
2022/01/01 00:11:58;;;;;;;26.00;18.92;;;;;;;;;;2079306;28;20272;-60
2022/01/01 00:12:59;;;;;;;27.88;18.58;;;;;;;;;;2078203;28;20181;-59
2022/01/01 00:13:59;;;;;;;26.67;17.65;;;;;;;;;;2088279;28;20179;-58
2022/01/01 00:15:00;;;;;;;25.42;18.27;;;;;;;;;;2088847;28;20203;-60
2022/01/01 00:16:00;;;;;;;23.90;17.10;;;;;;;;;;2085278;28;20173;-57
2022/01/01 00:17:00;;;;;;;23.38;18.17;;;;;;;;;;2087419;28;20175;-57
2022/01/01 00:18:01;;;;;;;21.75;17.40;;;;;;;;;;2088641;28;20558;-58
2022/01/01 00:19:01;;;;;;;22.63;17.05;;;;;;;;;;2090878;28;20182;-57
2022/01/01 00:20:01;;;;;;;27.15;17.85;;;;;;;;;;2076728;28;20180;-61
2022/01/01 00:21:02;;;;;;;25.75;17.83;;;;;;;;;;2079825;28;20184;-59
2022/01/01 00:22:03;;;;;;;28.60;18.90;;;;;;;;;;2079394;28;20184;-59
2022/01/01 00:23:03;;;;;;;44.13;33.28;;;;;;;;;;2079673;28;20200;-60
2022/01/01 00:24:03;;;;;;;33.38;25.05;;;;;;;;;;2087357;28;20254;-62
2022/01/01 00:25:04;;;;;;;30.33;20.15;;;;;;;;;;2090682;28;20715;-59
2022/01/01 00:26:04;;;;;;;28.35;19.45;;;;;;;;;;2087386;28;20202;-55
2022/01/01 00:27:04;;;;;;;28.30;19.90;;;;;;;;;;2088407;28;20207;-61
2022/01/01 00:28:05;;;;;;;31.10;19.33;;;;;;;;;;2087220;28;20171;-59
2022/01/01 00:29:05;;;;;;;23.52;18.52;;;;;;;;;;2079629;28;20176;-55
2022/01/01 00:30:06;;;;;;;27.10;18.00;;;;;;;;;;2078739;28;20185;-56
2022/01/01 00:31:07;;;;;;;25.83;18.25;;;;;;;;;;2088948;28;20199;-58
2022/01/01 00:32:07;;;;;;;32.20;19.63;;;;;;;;;;2088466;28;20186;-58
2022/01/01 00:33:07;;;;;;;28.55;19.05;;;;;;;;;;2079483;28;20967;-59
2022/01/01 00:34:08;;;;;;;29.02;19.15;;;;;;;;;;2080607;28;20175;-56
2022/01/01 00:35:08;;;;;;;25.67;18.10;;;;;;;;;;2089713;28;20266;-59
2022/01/01 00:36:08;;;;;;;25.10;18.27;;;;;;;;;;2079459;28;20573;-61
2022/01/01 00:37:09;;;;;;;25.25;19.13;;;;;;;;;;2081630;28;20183;-59
2022/01/01 00:38:09;;;;;;;22.42;18.83;;;;;;;;;;2089950;28;20186;-58
2022/01/01 00:39:09;;;;;;;24.02;19.42;;;;;;;;;;2090837;28;20208;-55
2022/01/01 00:40:10;;;;;;;32.00;19.58;;;;;;;;;;2088181;28;20179;-58
2022/01/01 00:41:10;;;;;;;28.00;19.80;;;;;;;;;;2090843;28;20331;-58
2022/01/01 00:42:10;;;;;;;28.23;18.90;;;;;;;;;;2079295;28;20208;-57
2022/01/01 00:43:11;;;;;;;25.45;18.52;;;;;;;;;;2082723;28;20164;-58
2022/01/01 00:44:11;;;;;;;27.52;18.95;;;;;;;;;;2088191;28;20659;-57
2022/01/01 00:45:12;;;;;;;28.17;20.15;;;;;;;;;;2092304;28;20217;-61
2022/01/01 00:46:12;;;;;;;30.23;19.85;;;;;;;;;;2080144;28;20195;-61
2022/01/01 00:47:12;;;;;;;27.88;20.27;;;;;;;;;;2083008;28;20203;-58
2022/01/01 00:48:12;;;;;;;24.83;19.63;;;;;;;;;;2090765;28;20261;-59
2022/01/01 00:49:13;;;;;;;26.17;18.60;;;;;;;;;;2091594;28;20202;-59
2022/01/01 00:50:13;;;;;;;30.30;19.27;;;;;;;;;;2091078;28;20196;-61
2022/01/01 00:51:13;;;;;;;26.60;19.35;;;;;;;;;;2091599;28;20636;-61
2022/01/01 00:52:14;;;;;;;31.40;20.15;;;;;;;;;;2091687;28;20705;-62
2022/01/01 00:53:14;;;;;;;27.35;20.42;;;;;;;;;;2082730;28;20184;-60
2022/01/01 00:54:14;;;;;;;35.53;20.58;;;;;;;;;;2075144;28;20165;-59
2022/01/01 00:55:15;;;;;;;25.35;20.17;;;;;;;;;;2074889;28;20833;-60
2022/01/01 00:56:15;;;;;;;30.05;19.42;;;;;;;;;;2082542;28;20182;-60
2022/01/01 00:57:16;;;;;;;26.55;20.02;;;;;;;;;;2082590;28;20655;-56
2022/01/01 00:58:16;;;;;;;29.05;20.60;;;;;;;;;;2083064;28;20271;-60
2022/01/01 00:59:16;;;;;;;31.92;22.05;;;;;;;;;;2091300;28;20234;-58
2022/01/01 01:00:17;;;;;;;32.08;20.92;;;;;;;;;;2093854;28;20220;-59
2022/01/01 01:01:17;;;;;;;26.38;20.45;;;;;;;;;;2091169;28;20206;-56
2022/01/01 01:02:17;;;;;;;27.85;19.75;;;;;;;;;;2090923;28;20175;-57
2022/01/01 01:03:18;;;;;;;29.52;20.60;;;;;;;;;;2089486;28;20963;-60
2022/01/01 01:04:18;;;;;;;27.83;18.90;;;;;;;;;;2091520;28;20687;-58
2022/01/01 01:05:18;;;;;;;33.90;21.15;;;;;;;;;;2090293;28;20211;-57
2022/01/01 01:06:19;;;;;;;30.50;20.17;;;;;;;;;;2091048;28;20737;-59
2022/01/01 01:07:19;;;;;;;32.45;20.95;;;;;;;;;;2090518;28;20195;-56
2022/01/01 01:08:19;;;;;;;28.23;20.83;;;;;;;;;;2093265;28;20171;-57
2022/01/01 01:09:20;;;;;;;30.10;19.45;;;;;;;;;;2093499;28;20202;-57
2022/01/01 01:10:20;;;;;;;29.00;20.50;;;;;;;;;;2093348;28;20164;-58
2022/01/01 01:11:21;;;;;;;35.28;21.15;;;;;;;;;;2081950;28;20956;-57
2022/01/01 01:12:25;;;;;;;31.65;20.58;;;;;;;;;;2082807;28;20741;-58
2022/01/01 01:13:29;;;;;;;28.55;20.50;;;;;;;;;;2085284;28;20686;-57
2022/01/01 01:14:39;;;;;;;32.90;21.80;;;;;;;;;;2083819;28;20180;-60
2022/01/01 01:15:39;;;;;;;26.48;19.08;;;;;;;;;;2070030;28;20160;-57
2022/01/01 01:16:39;;;;;;;25.73;19.05;;;;;;;;;;2075024;28;20173;-55
2022/01/01 01:17:40;;;;;;;27.67;20.08;;;;;;;;;;2081171;28;20229;-57
2022/01/01 01:18:40;;;;;;;29.58;19.23;;;;;;;;;;2079125;28;20204;-58
2022/01/01 01:19:40;;;;;;;28.50;19.88;;;;;;;;;;2090161;28;20178;-57
2022/01/01 01:20:41;;;;;;;29.30;19.77;;;;;;;;;;2088415;28;20666;-58
2022/01/01 01:21:41;;;;;;;34.25;19.42;;;;;;;;;;2087024;28;20182;-60
2022/01/01 01:22:42;;;;;;;26.80;18.23;;;;;;;;;;2081384;28;20260;-60
2022/01/01 01:23:42;;;;;;;32.22;19.65;;;;;;;;;;2080346;28;20164;-58
2022/01/01 01:24:43;;;;;;;28.02;19.83;;;;;;;;;;2077577;28;20858;-59
2022/01/01 01:25:43;;;;;;;29.88;20.00;;;;;;;;;;2070215;28;20176;-58
2022/01/01 01:26:48;;;;;;;29.33;19.27;;;;;;;;;;2077509;28;20688;-57
2022/01/01 01:27:50;;;;;;;29.98;19.83;;;;;;;;;;2089099;28;20170;-58
2022/01/01 01:28:52;;;;;;;31.63;19.95;;;;;;;;;;2090235;28;20167;-58
2022/01/01 01:29:52;;;;;;;31.48;19.60;;;;;;;;;;2072540;28;20177;-58
2022/01/01 01:30:52;;;;;;;31.90;20.38;;;;;;;;;;2072550;28;20176;-58
2022/01/01 01:31:53;;;;;;;30.58;18.98;;;;;;;;;;2089310;28;20182;-59
2022/01/01 01:32:53;;;;;;;31.05;20.05;;;;;;;;;;2092877;28;20271;-58
2022/01/01 01:33:53;;;;;;;29.35;19.52;;;;;;;;;;2091138;28;20195;-56
2022/01/01 01:34:53;;;;;;;30.00;19.63;;;;;;;;;;2080647;28;20688;-59
2022/01/01 01:35:54;;;;;;;29.65;19.95;;;;;;;;;;2080519;28;20364;-58
2022/01/01 01:36:54;;;;;;;29.75;20.00;;;;;;;;;;2083860;28;20555;-58
2022/01/01 01:37:54;;;;;;;27.58;19.92;;;;;;;;;;2088004;28;20167;-55
2022/01/01 01:38:55;;;;;;;28.38;19.77;;;;;;;;;;2083853;28;20188;-56
2022/01/01 01:39:56;;;;;;;31.25;18.25;;;;;;;;;;2087972;28;20582;-56
2022/01/01 01:40:56;;;;;;;24.88;18.73;;;;;;;;;;2090097;28;20543;-60
2022/01/01 01:41:56;;;;;;;27.17;19.50;;;;;;;;;;2083056;28;20176;-61
2022/01/01 01:42:57;;;;;;;27.20;20.05;;;;;;;;;;2087546;28;20172;-58
2022/01/01 01:43:58;;;;;;;32.70;19.83;;;;;;;;;;2089680;28;20671;-57
2022/01/01 01:45:00;;;;;;;28.42;20.10;;;;;;;;;;2089795;28;20733;-57
2022/01/01 01:46:05;;;;;;;25.45;19.30;;;;;;;;;;2089063;28;20221;-58
2022/01/01 01:47:13;;;;;;;27.15;18.63;;;;;;;;;;2088329;28;20198;-59
2022/01/01 01:48:13;;;;;;;27.75;20.05;;;;;;;;;;2072796;28;20711;-53
2022/01/01 01:49:14;;;;;;;25.13;18.85;;;;;;;;;;2072631;28;20173;-56
2022/01/01 01:50:15;;;;;;;31.13;19.48;;;;;;;;;;2080698;28;20173;-57
2022/01/01 01:51:15;;;;;;;29.58;21.13;;;;;;;;;;2080681;28;20256;-57
2022/01/01 01:52:17;;;;;;;31.25;20.17;;;;;;;;;;2089827;28;20544;-58
2022/01/01 01:53:17;;;;;;;31.05;20.77;;;;;;;;;;2077917;28;20254;-59
2022/01/01 01:54:18;;;;;;;30.08;20.98;;;;;;;;;;2071213;28;20173;-61
2022/01/01 01:55:19;;;;;;;25.17;19.63;;;;;;;;;;2075015;28;20172;-62
2022/01/01 01:56:19;;;;;;;33.00;20.38;;;;;;;;;;2081790;28;20244;-61
2022/01/01 01:57:20;;;;;;;29.17;20.50;;;;;;;;;;2088410;28;20190;-59
2022/01/01 01:58:21;;;;;;;28.58;19.95;;;;;;;;;;2090412;28;20568;-58
2022/01/01 01:59:22;;;;;;;26.67;19.27;;;;;;;;;;2089427;28;20219;-58
2022/01/01 02:01:41;;;;;;;26.65;19.67;;;;;;;;;;2085638;28;20195;-55
2022/01/01 02:02:41;;;;;;;30.45;20.25;;;;;;;;;;2089350;28;20194;-59
2022/01/01 02:03:42;;;;;;;27.58;19.65;;;;;;;;;;2088370;28;20180;-60
2022/01/01 02:04:42;;;;;;;29.10;19.35;;;;;;;;;;2085181;28;20211;-57
2022/01/01 02:05:43;;;;;;;33.80;21.92;;;;;;;;;;2077800;28;20180;-58
2022/01/01 02:06:44;;;;;;;31.75;20.75;;;;;;;;;;2087489;28;20210;-60
2022/01/01 02:07:44;;;;;;;32.58;20.92;;;;;;;;;;2090224;28;20550;-60
2022/01/01 02:08:44;;;;;;;27.95;19.75;;;;;;;;;;2079590;28;20667;-55
2022/01/01 02:09:45;;;;;;;36.05;20.38;;;;;;;;;;2080897;28;20181;-60
2022/01/01 02:10:48;;;;;;;28.05;19.75;;;;;;;;;;2087628;28;20280;-59
2022/01/01 02:11:48;;;;;;;27.35;20.23;;;;;;;;;;2080791;28;20161;-62
2022/01/01 02:12:53;;;;;;;30.10;20.38;;;;;;;;;;2081469;28;20704;-57
2022/01/01 02:15:10;;;;;;;32.45;19.52;;;;;;;;;;2087785;28;20200;-57
2022/01/01 02:17:15;;;;;;;30.80;21.52;;;;;;;;;;2088395;28;20163;-58
2022/01/01 02:18:15;;;;;;;34.90;20.88;;;;;;;;;;2090044;28;20560;-60
2022/01/01 02:19:19;;;;;;;31.48;20.80;;;;;;;;;;2089668;28;20199;-57
2022/01/01 02:20:21;;;;;;;25.75;20.05;;;;;;;;;;2089246;28;20179;-57
2022/01/01 02:21:21;;;;;;;33.80;20.95;;;;;;;;;;2090188;28;20706;-56
2022/01/01 02:22:23;;;;;;;28.08;19.58;;;;;;;;;;2090130;28;20221;-58
2022/01/01 02:23:26;;;;;;;29.65;19.92;;;;;;;;;;2089164;28;20380;-59
2022/01/01 02:24:26;;;;;;;30.30;20.75;;;;;;;;;;2080626;28;20272;-57
2022/01/01 02:25:27;;;;;;;29.08;20.90;;;;;;;;;;2072140;28;20173;-61
2022/01/01 02:26:29;;;;;;;33.35;20.98;;;;;;;;;;2080921;28;20160;-56
2022/01/01 02:27:29;;;;;;;30.13;20.55;;;;;;;;;;2086499;28;20185;-58
2022/01/01 02:28:30;;;;;;;27.77;21.38;;;;;;;;;;2089746;28;20547;-59
2022/01/01 02:29:30;;;;;;;31.42;20.50;;;;;;;;;;2089375;28;20167;-55
2022/01/01 02:30:30;;;;;;;30.73;19.58;;;;;;;;;;2089508;28;20318;-58
2022/01/01 02:31:31;;;;;;;32.33;20.25;;;;;;;;;;2080865;28;20417;-54
2022/01/01 02:32:31;;;;;;;29.60;21.40;;;;;;;;;;2081139;28;20169;-56
2022/01/01 02:33:32;;;;;;;28.50;19.73;;;;;;;;;;2089214;28;20182;-55
2022/01/01 02:34:32;;;;;;;32.03;20.83;;;;;;;;;;2085063;28;20168;-57
2022/01/01 02:35:32;;;;;;;29.27;20.10;;;;;;;;;;2085129;28;20183;-59
2022/01/01 02:36:34;;;;;;;31.00;19.88;;;;;;;;;;2088932;28;20412;-55
2022/01/01 02:37:35;;;;;;;28.67;21.27;;;;;;;;;;2088205;28;20183;-54
2022/01/01 02:38:36;;;;;;;29.02;19.75;;;;;;;;;;2084346;28;20566;-58
2022/01/01 02:39:36;;;;;;;32.42;20.45;;;;;;;;;;2089632;28;20175;-58
2022/01/01 02:40:38;;;;;;;28.73;20.38;;;;;;;;;;2087303;28;20170;-59
2022/01/01 02:41:38;;;;;;;25.10;19.48;;;;;;;;;;2087437;28;20176;-59
2022/01/01 02:42:39;;;;;;;26.48;20.88;;;;;;;;;;2087121;28;20587;-55
2022/01/01 02:43:43;;;;;;;28.85;20.45;;;;;;;;;;2089347;28;20175;-58
2022/01/01 02:44:43;;;;;;;34.45;22.42;;;;;;;;;;2081224;28;20254;-55
2022/01/01 02:45:43;;;;;;;31.00;21.05;;;;;;;;;;2083150;28;20183;-56
2022/01/01 02:46:44;;;;;;;30.40;20.52;;;;;;;;;;2086175;28;20660;-57
2022/01/01 02:47:44;;;;;;;27.40;21.55;;;;;;;;;;2087630;28;20175;-58
2022/01/01 02:48:45;;;;;;;30.13;21.35;;;;;;;;;;2087145;28;20767;-61
2022/01/01 02:49:46;;;;;;;25.02;20.77;;;;;;;;;;2088292;28;20171;-58
2022/01/01 02:50:46;;;;;;;30.25;22.83;;;;;;;;;;2088771;28;20179;-58
2022/01/01 02:51:47;;;;;;;31.23;21.55;;;;;;;;;;2085052;28;20664;-58
2022/01/01 02:52:47;;;;;;;33.38;22.25;;;;;;;;;;2086667;28;20306;-60
2022/01/01 02:53:48;;;;;;;31.08;20.63;;;;;;;;;;2088247;28;20200;-56
2022/01/01 02:54:48;;;;;;;31.65;21.25;;;;;;;;;;2088640;28;20216;-57
2022/01/01 02:55:48;;;;;;;27.45;21.08;;;;;;;;;;2088795;28;20677;-58
2022/01/01 02:56:49;;;;;;;34.50;21.13;;;;;;;;;;2080047;28;20204;-56
2022/01/01 02:57:50;;;;;;;30.02;21.15;;;;;;;;;;2074409;28;20198;-58
2022/01/01 02:58:51;;;;;;;37.85;22.42;;;;;;;;;;2077570;28;20222;-59
2022/01/01 02:59:51;;;;;;;33.00;22.17;;;;;;;;;;2080138;28;20165;-60
2022/01/01 03:00:51;;;;;;;33.90;21.35;;;;;;;;;;2080498;28;20171;-57
2022/01/01 03:01:52;;;;;;;27.15;20.65;;;;;;;;;;2086571;28;20183;-56
2022/01/01 03:02:52;;;;;;;34.53;21.33;;;;;;;;;;2088944;28;20200;-59
2022/01/01 03:03:52;;;;;;;32.53;21.38;;;;;;;;;;2088345;28;20178;-57
2022/01/01 03:04:53;;;;;;;30.08;22.60;;;;;;;;;;2088880;28;20274;-59
2022/01/01 03:05:53;;;;;;;31.27;21.67;;;;;;;;;;2088983;28;20176;-59
2022/01/01 03:06:55;;;;;;;32.88;22.50;;;;;;;;;;2081354;28;20210;-58
2022/01/01 03:07:56;;;;;;;27.35;21.20;;;;;;;;;;2079641;28;20172;-60
2022/01/01 03:08:56;;;;;;;31.38;21.42;;;;;;;;;;2080080;28;20184;-55
2022/01/01 03:09:57;;;;;;;30.88;19.45;;;;;;;;;;2090133;28;20163;-56
2022/01/01 03:10:57;;;;;;;32.20;21.95;;;;;;;;;;2083409;28;20180;-56
2022/01/01 03:11:57;;;;;;;31.10;21.90;;;;;;;;;;2079391;28;20259;-54
2022/01/01 03:12:58;;;;;;;34.17;21.67;;;;;;;;;;2079847;28;20660;-59
2022/01/01 03:13:58;;;;;;;33.05;21.58;;;;;;;;;;2088911;28;20231;-58
2022/01/01 03:14:58;;;;;;;36.13;23.52;;;;;;;;;;2088519;28;20199;-56
2022/01/01 03:15:59;;;;;;;31.40;22.20;;;;;;;;;;2088691;28;20235;-58
2022/01/01 03:16:59;;;;;;;33.55;22.73;;;;;;;;;;2085373;28;20187;-58
2022/01/01 03:18:01;;;;;;;37.15;21.73;;;;;;;;;;2087673;28;20183;-60
2022/01/01 03:19:01;;;;;;;31.10;20.67;;;;;;;;;;2089319;28;20164;-56
2022/01/01 03:20:02;;;;;;;33.25;21.83;;;;;;;;;;2088729;28;20182;-57
2022/01/01 03:21:03;;;;;;;31.30;21.75;;;;;;;;;;2080393;28;20199;-57
2022/01/01 03:22:04;;;;;;;38.75;23.83;;;;;;;;;;2080846;28;20204;-57
2022/01/01 03:23:04;;;;;;;30.77;20.38;;;;;;;;;;2080240;28;20184;-58
2022/01/01 03:24:05;;;;;;;33.38;22.48;;;;;;;;;;2079643;28;20179;-59
2022/01/01 03:25:05;;;;;;;27.08;21.08;;;;;;;;;;2080073;28;20772;-57
2022/01/01 03:26:06;;;;;;;29.42;21.30;;;;;;;;;;2089116;28;20167;-55
2022/01/01 03:27:06;;;;;;;31.65;22.85;;;;;;;;;;2089278;28;20203;-57
2022/01/01 03:28:07;;;;;;;29.30;20.92;;;;;;;;;;2089161;28;20175;-58
2022/01/01 03:29:07;;;;;;;37.75;21.52;;;;;;;;;;2089445;28;20163;-58
2022/01/01 03:30:08;;;;;;;32.70;22.45;;;;;;;;;;2089804;28;20172;-55
2022/01/01 03:31:08;;;;;;;31.35;22.63;;;;;;;;;;2090625;28;20182;-60
2022/01/01 03:32:09;;;;;;;30.92;22.70;;;;;;;;;;2081401;28;20168;-55
2022/01/01 03:33:09;;;;;;;35.65;23.30;;;;;;;;;;2072636;28;20208;-60
2022/01/01 03:34:10;;;;;;;37.05;22.85;;;;;;;;;;2071895;28;20169;-60
2022/01/01 03:35:10;;;;;;;30.98;22.20;;;;;;;;;;2081663;28;20920;-58
2022/01/01 03:36:10;;;;;;;35.92;22.90;;;;;;;;;;2086304;28;20176;-56
2022/01/01 03:37:10;;;;;;;31.20;22.30;;;;;;;;;;2089038;28;20160;-54
2022/01/01 03:38:11;;;;;;;33.70;21.48;;;;;;;;;;2085150;28;20206;-55
2022/01/01 03:39:11;;;;;;;33.28;21.90;;;;;;;;;;2089014;28;20207;-55
2022/01/01 03:40:11;;;;;;;40.35;23.92;;;;;;;;;;2085132;28;20186;-60
2022/01/01 03:41:12;;;;;;;30.90;20.67;;;;;;;;;;2091616;28;20818;-61
2022/01/01 03:42:12;;;;;;;37.15;22.95;;;;;;;;;;2090274;28;20171;-59
2022/01/01 03:43:13;;;;;;;34.55;22.83;;;;;;;;;;2089390;28;20224;-55
2022/01/01 03:44:13;;;;;;;36.60;22.88;;;;;;;;;;2088366;28;20210;-56
2022/01/01 03:45:13;;;;;;;36.20;23.85;;;;;;;;;;2089521;28;20187;-59
2022/01/01 03:46:14;;;;;;;35.80;22.30;;;;;;;;;;2079967;28;20218;-58
2022/01/01 03:47:14;;;;;;;34.35;22.27;;;;;;;;;;2080571;28;20196;-57
2022/01/01 03:48:14;;;;;;;38.72;25.40;;;;;;;;;;2089195;28;20201;-60
2022/01/01 03:49:15;;;;;;;34.80;23.50;;;;;;;;;;2089369;28;20179;-58
2022/01/01 03:50:15;;;;;;;39.97;24.67;;;;;;;;;;2080309;28;20208;-59
2022/01/01 03:51:15;;;;;;;39.97;24.10;;;;;;;;;;2080525;28;20180;-58
2022/01/01 03:52:16;;;;;;;38.75;24.45;;;;;;;;;;2088806;28;20187;-58
2022/01/01 03:53:16;;;;;;;32.78;23.92;;;;;;;;;;2088794;28;20172;-61
2022/01/01 03:54:17;;;;;;;35.83;23.60;;;;;;;;;;2086120;28;20211;-60
2022/01/01 03:55:17;;;;;;;37.20;23.73;;;;;;;;;;2088821;28;20183;-55
2022/01/01 03:56:17;;;;;;;39.75;25.42;;;;;;;;;;2089733;28;20620;-59
2022/01/01 03:57:20;;;;;;;33.90;24.08;;;;;;;;;;2088925;28;20186;-59
2022/01/01 03:58:21;;;;;;;31.20;23.52;;;;;;;;;;2088904;28;20763;-58
2022/01/01 03:59:21;;;;;;;38.10;24.13;;;;;;;;;;2084630;28;20187;-58
2022/01/01 04:00:21;;;;;;;36.30;23.65;;;;;;;;;;2088658;28;20176;-55
2022/01/01 04:01:22;;;;;;;32.15;25.60;;;;;;;;;;2083317;28;20255;-58
2022/01/01 04:02:22;;;;;;;41.58;24.80;;;;;;;;;;2089468;28;20182;-53
2022/01/01 04:03:22;;;;;;;37.60;26.05;;;;;;;;;;2088491;28;20528;-57
2022/01/01 04:04:25;;;;;;;45.65;26.20;;;;;;;;;;2083512;28;20934;-58
2022/01/01 04:05:25;;;;;;;38.22;25.05;;;;;;;;;;2088808;28;20690;-57
2022/01/01 04:06:25;;;;;;;40.75;25.67;;;;;;;;;;2078449;28;20219;-58
2022/01/01 04:07:25;;;;;;;36.75;24.85;;;;;;;;;;2066158;28;20197;-57
2022/01/01 04:08:28;;;;;;;36.83;25.20;;;;;;;;;;2079806;28;20176;-57
2022/01/01 04:09:28;;;;;;;41.00;28.15;;;;;;;;;;2084434;28;20628;-57
2022/01/01 04:10:31;;;;;;;40.63;26.15;;;;;;;;;;2090094;28;20187;-57
2022/01/01 04:11:32;;;;;;;38.83;26.38;;;;;;;;;;2090689;28;20274;-58
2022/01/01 04:12:32;;;;;;;47.78;27.67;;;;;;;;;;2079323;28;20180;-56
2022/01/01 04:13:32;;;;;;;42.28;27.67;;;;;;;;;;2081365;28;20180;-59
2022/01/01 04:14:33;;;;;;;50.88;27.67;;;;;;;;;;2085214;28;20191;-60
2022/01/01 04:15:34;;;;;;;41.47;27.90;;;;;;;;;;2087182;28;20176;-57
2022/01/01 04:16:35;;;;;;;42.90;28.05;;;;;;;;;;2076664;28;20164;-59
2022/01/01 04:17:37;;;;;;;43.10;27.42;;;;;;;;;;2073348;28;20705;-56
2022/01/01 04:18:38;;;;;;;41.72;26.75;;;;;;;;;;2076740;28;20271;-59
2022/01/01 04:19:39;;;;;;;44.72;27.02;;;;;;;;;;2090076;28;20611;-59
2022/01/01 04:20:41;;;;;;;44.63;28.77;;;;;;;;;;2081521;28;20167;-59
2022/01/01 04:21:42;;;;;;;44.97;27.88;;;;;;;;;;2082026;28;20226;-58
2022/01/01 04:22:42;;;;;;;43.75;28.42;;;;;;;;;;2090062;28;20624;-57
2022/01/01 04:23:45;;;;;;;41.92;28.25;;;;;;;;;;2089885;28;20198;-55
2022/01/01 04:24:45;;;;;;;41.70;28.27;;;;;;;;;;2115007;22;20567;-61
2022/01/01 04:25:47;;;;;;;45.55;27.08;;;;;;;;;;2072057;28;20192;-61
2022/01/01 04:26:47;;;;;;;48.40;28.67;;;;;;;;;;2078889;28;20268;-57
2022/01/01 04:27:48;;;;;;;45.55;27.88;;;;;;;;;;2081015;28;20685;-61
2022/01/01 04:28:48;;;;;;;41.92;27.70;;;;;;;;;;2081207;28;20529;-60
2022/01/01 04:29:48;;;;;;;46.85;28.13;;;;;;;;;;2077702;28;20181;-61
2022/01/01 04:30:49;;;;;;;43.03;27.65;;;;;;;;;;2088130;28;20636;-61
2022/01/01 04:31:49;;;;;;;45.30;29.05;;;;;;;;;;2078547;28;20172;-60
2022/01/01 04:32:50;;;;;;;45.53;28.95;;;;;;;;;;2082060;28;20489;-60
2022/01/01 04:33:50;;;;;;;43.88;29.08;;;;;;;;;;2088638;28;20171;-60
2022/01/01 04:34:50;;;;;;;46.00;30.02;;;;;;;;;;2090152;28;20187;-61
2022/01/01 04:35:51;;;;;;;42.05;29.50;;;;;;;;;;2090224;28;20155;-60
2022/01/01 04:37:00;;;;;;;43.05;30.67;;;;;;;;;;2088926;28;20652;-60
2022/01/01 04:38:01;;;;;;;49.40;30.20;;;;;;;;;;2083133;28;20172;-61
2022/01/01 04:39:01;;;;;;;51.30;30.40;;;;;;;;;;2089222;28;20609;-60
2022/01/01 04:40:02;;;;;;;43.17;29.52;;;;;;;;;;2089594;28;20667;-60
2022/01/01 04:41:03;;;;;;;46.70;27.90;;;;;;;;;;2090008;28;20259;-61
2022/01/01 04:42:04;;;;;;;43.47;29.77;;;;;;;;;;2089281;28;20218;-61
2022/01/01 04:43:04;;;;;;;45.63;28.58;;;;;;;;;;2089825;28;20176;-60
2022/01/01 04:44:04;;;;;;;45.67;30.27;;;;;;;;;;2087319;28;20176;-60
2022/01/01 04:45:05;;;;;;;46.72;29.55;;;;;;;;;;2090621;28;20243;-60
2022/01/01 04:46:05;;;;;;;46.85;29.50;;;;;;;;;;2089784;28;20598;-61
2022/01/01 04:47:05;;;;;;;47.85;31.02;;;;;;;;;;2089964;28;20187;-57
2022/01/01 04:48:05;;;;;;;44.20;31.52;;;;;;;;;;2089509;28;20175;-59
2022/01/01 04:49:06;;;;;;;45.88;30.60;;;;;;;;;;2081032;28;20550;-60
2022/01/01 04:50:06;;;;;;;47.92;30.15;;;;;;;;;;2081184;28;20191;-60
2022/01/01 04:51:07;;;;;;;50.05;32.28;;;;;;;;;;2089249;28;20259;-61
2022/01/01 04:52:08;;;;;;;48.05;30.58;;;;;;;;;;2089746;28;20168;-60
2022/01/01 04:53:13;;;;;;;40.33;29.33;;;;;;;;;;2090349;28;20655;-59
2022/01/01 04:54:15;;;;;;;46.58;28.98;;;;;;;;;;2083873;28;20210;-59
2022/01/01 04:55:16;;;;;;;48.85;28.92;;;;;;;;;;2084446;28;20206;-59
2022/01/01 04:56:19;;;;;;;50.45;31.02;;;;;;;;;;2089778;28;20203;-59
2022/01/01 04:57:20;;;;;;;46.67;32.05;;;;;;;;;;2081755;28;20180;-61
2022/01/01 04:58:20;;;;;;;47.30;31.20;;;;;;;;;;2084964;28;20184;-61
2022/01/01 04:59:20;;;;;;;44.90;30.48;;;;;;;;;;2090978;28;20806;-61
2022/01/01 05:00:21;;;;;;;46.20;31.83;;;;;;;;;;2091716;28;20191;-61
2022/01/01 05:01:21;;;;;;;40.67;30.70;;;;;;;;;;2091066;28;20233;-60
2022/01/01 05:02:21;;;;;;;49.67;32.40;;;;;;;;;;2090522;28;20175;-61
2022/01/01 05:03:22;;;;;;;48.90;31.75;;;;;;;;;;2081641;28;20188;-61
2022/01/01 05:04:22;;;;;;;45.05;30.58;;;;;;;;;;2081716;28;20192;-60
2022/01/01 05:05:22;;;;;;;42.08;30.55;;;;;;;;;;2091195;28;20230;-62
2022/01/01 05:06:22;;;;;;;44.33;31.58;;;;;;;;;;2098634;28;20179;-62
2022/01/01 05:07:23;;;;;;;45.35;29.75;;;;;;;;;;2099467;28;20191;-59
2022/01/01 05:08:23;;;;;;;52.63;32.08;;;;;;;;;;2090128;28;20259;-62
2022/01/01 05:09:24;;;;;;;49.50;32.42;;;;;;;;;;2075257;28;20735;-61
2022/01/01 05:10:24;;;;;;;55.65;33.70;;;;;;;;;;2083088;28;20172;-62
2022/01/01 05:11:24;;;;;;;46.63;32.40;;;;;;;;;;2094845;28;20218;-59
2022/01/01 05:12:25;;;;;;;42.78;29.92;;;;;;;;;;2090438;28;20172;-60
2022/01/01 05:13:25;;;;;;;39.42;29.92;;;;;;;;;;2090086;28;20531;-60
2022/01/01 05:14:25;;;;;;;48.92;32.10;;;;;;;;;;2090604;28;20230;-59
2022/01/01 05:15:26;;;;;;;44.45;30.50;;;;;;;;;;2090271;28;20176;-59
2022/01/01 05:16:26;;;;;;;46.97;31.88;;;;;;;;;;2090441;28;20198;-60
2022/01/01 05:17:26;;;;;;;50.10;31.05;;;;;;;;;;2090400;28;20221;-60
2022/01/01 05:18:27;;;;;;;48.00;32.95;;;;;;;;;;2090528;28;20729;-61
2022/01/01 05:19:27;;;;;;;55.92;32.28;;;;;;;;;;2090438;28;20171;-61
2022/01/01 05:20:28;;;;;;;48.55;31.38;;;;;;;;;;2090037;28;20180;-60
2022/01/01 05:21:31;;;;;;;52.95;33.22;;;;;;;;;;2090370;28;20636;-61
2022/01/01 05:22:32;;;;;;;49.78;32.17;;;;;;;;;;2090490;28;20558;-61
2022/01/01 05:23:32;;;;;;;50.35;33.92;;;;;;;;;;2089939;28;20258;-61
2022/01/01 05:24:32;;;;;;;48.65;33.30;;;;;;;;;;2090367;28;20176;-61
2022/01/01 05:25:33;;;;;;;49.83;31.85;;;;;;;;;;2081479;28;20909;-61
2022/01/01 05:26:33;;;;;;;47.30;32.33;;;;;;;;;;2081760;28;20176;-60
2022/01/01 05:27:35;;;;;;;48.05;32.08;;;;;;;;;;2090402;28;20217;-62
2022/01/01 05:28:36;;;;;;;49.92;32.80;;;;;;;;;;2090509;28;20194;-62
2022/01/01 05:29:36;;;;;;;54.42;35.03;;;;;;;;;;2090531;28;20198;-61
2022/01/01 05:30:36;;;;;;;48.13;32.85;;;;;;;;;;2090499;28;20222;-59
2022/01/01 05:31:36;;;;;;;46.90;32.53;;;;;;;;;;2090433;28;20543;-61
2022/01/01 05:32:37;;;;;;;55.60;30.67;;;;;;;;;;2090578;28;20636;-61
2022/01/01 05:33:37;;;;;;;44.28;30.85;;;;;;;;;;2089843;28;20532;-61
2022/01/01 05:34:37;;;;;;;56.35;35.90;;;;;;;;;;2090454;28;20163;-61
2022/01/01 05:35:37;;;;;;;49.60;33.50;;;;;;;;;;2090240;28;20199;-58
2022/01/01 05:36:38;;;;;;;52.17;32.75;;;;;;;;;;2090491;28;20175;-62
2022/01/01 05:37:38;;;;;;;54.92;34.92;;;;;;;;;;2081658;28;20204;-61
2022/01/01 05:38:38;;;;;;;57.80;33.58;;;;;;;;;;2081584;28;20267;-62
2022/01/01 05:39:39;;;;;;;53.28;34.35;;;;;;;;;;2090511;28;20170;-60
2022/01/01 05:40:39;;;;;;;57.33;34.42;;;;;;;;;;2090471;28;20568;-59
2022/01/01 05:41:39;;;;;;;50.70;32.03;;;;;;;;;;2090670;28;20190;-60
2022/01/01 05:42:39;;;;;;;52.60;34.28;;;;;;;;;;2090457;28;20234;-60
2022/01/01 05:43:39;;;;;;;52.15;34.92;;;;;;;;;;2089928;28;20536;-60
2022/01/01 05:44:40;;;;;;;49.55;32.97;;;;;;;;;;2090245;28;20195;-62
2022/01/01 05:45:42;;;;;;;53.55;33.50;;;;;;;;;;2090069;28;20542;-61
2022/01/01 05:46:42;;;;;;;49.28;33.50;;;;;;;;;;2090380;28;20183;-61
2022/01/01 05:47:42;;;;;;;52.58;34.63;;;;;;;;;;2090587;28;20167;-62
2022/01/01 05:48:43;;;;;;;52.50;34.65;;;;;;;;;;2090108;28;20556;-60
2022/01/01 05:49:43;;;;;;;58.63;36.00;;;;;;;;;;2090393;28;20176;-61
2022/01/01 05:50:43;;;;;;;53.55;34.33;;;;;;;;;;2090186;28;20221;-60
2022/01/01 05:51:43;;;;;;;59.22;35.05;;;;;;;;;;2081953;28;20239;-61
2022/01/01 05:52:44;;;;;;;53.20;34.05;;;;;;;;;;2081557;28;20164;-61
2022/01/01 05:53:44;;;;;;;54.40;34.10;;;;;;;;;;2084481;28;20164;-60
2022/01/01 05:54:44;;;;;;;51.20;34.85;;;;;;;;;;2086718;28;20207;-61
2022/01/01 05:55:45;;;;;;;56.20;34.35;;;;;;;;;;2079962;28;20255;-63
2022/01/01 05:56:45;;;;;;;50.13;35.65;;;;;;;;;;2078256;28;20211;-60